Time;durP1;ratioP1;P1;durP2;ratioP2;P2;SDS_P1;SDS_P2;PMS_P1;PMS_P2;Temp;Humidity;BMP_temperature;BMP_pressure;BME280_temperature;BME280_humidity;BME280_pressure;Samples;Min_cycle;Max_cycle;Signal;HPM_P1;HPM_P2
2021/07/28 00:00:39;;;;;;;22.98;11.62;;;;;;;;;;359960;147;857231;-59
2021/07/28 00:01:58;;;;;;;;;;;;;;;;;;360156;147;864231;-59
2021/07/28 00:03:18;;;;;;;16.86;11.38;;;;;;;;;;355553;151;857443;-59
2021/07/28 00:04:39;;;;;;;19.71;11.87;;;;;;;;;;356963;148;858908;-60
2021/07/28 00:05:59;;;;;;;27.07;11.61;;;;;;;;;;355540;148;864732;-60
2021/07/28 00:07:18;;;;;;;16.87;11.70;;;;;;;;;;358856;149;861813;-59
2021/07/28 00:08:38;;;;;;;18.94;12.18;;;;;;;;;;359750;146;857172;-59
2021/07/28 00:09:58;;;;;;;22.86;12.42;;;;;;;;;;359762;149;864628;-62
2021/07/28 00:11:18;;;;;;;21.61;12.39;;;;;;;;;;355666;146;857326;-59
2021/07/28 00:12:38;;;;;;;17.21;11.58;;;;;;;;;;356703;148;859210;-60
2021/07/28 00:13:59;;;;;;;17.44;12.29;;;;;;;;;;360698;149;857160;-61
2021/07/28 00:15:20;;;;;;;24.33;12.85;;;;;;;;;;358514;148;864523;-61
2021/07/28 00:16:40;;;;;;;22.38;11.27;;;;;;;;;;358008;148;858321;-61
2021/07/28 00:18:05;;;;;;;24.50;11.36;;;;;;;;;;360012;148;864483;-60
2021/07/28 00:19:25;;;;;;;19.36;12.23;;;;;;;;;;359400;146;864833;-60
2021/07/28 00:23:42;;;;;;;19.05;12.49;;;;;;;;;;357022;148;864819;-62
2021/07/28 00:25:03;;;;;;;17.29;11.27;;;;;;;;;;356114;149;857296;-61
2021/07/28 00:26:23;;;;;;;20.79;12.11;;;;;;;;;;358493;147;867034;-60
2021/07/28 00:27:42;;;;;;;20.91;11.38;;;;;;;;;;353936;152;859643;-60
2021/07/28 00:29:02;;;;;;;22.47;11.58;;;;;;;;;;357810;146;859718;-60
2021/07/28 00:30:22;;;;;;;19.39;11.11;;;;;;;;;;356811;148;864998;-60
2021/07/28 00:31:42;;;;;;;17.60;12.12;;;;;;;;;;354845;149;866086;-60
2021/07/28 00:33:02;;;;;;;20.69;11.63;;;;;;;;;;357853;146;859811;-60
2021/07/28 00:34:22;;;;;;;17.04;12.13;;;;;;;;;;359475;149;866607;-60
2021/07/28 00:35:42;;;;;;;19.54;11.84;;;;;;;;;;357421;149;866286;-60
2021/07/28 00:37:02;;;;;;;16.27;12.01;;;;;;;;;;355496;147;861170;-60
2021/07/28 00:38:24;;;;;;;19.19;12.12;;;;;;;;;;354210;152;865083;-60
2021/07/28 00:39:44;;;;;;;20.56;11.50;;;;;;;;;;354765;148;866762;-60
2021/07/28 00:41:04;;;;;;;23.83;12.14;;;;;;;;;;360569;148;858199;-60
2021/07/28 00:42:24;;;;;;;20.01;13.60;;;;;;;;;;358535;149;864855;-60
2021/07/28 00:43:44;;;;;;;23.19;12.72;;;;;;;;;;355782;148;866557;-60
2021/07/28 00:45:04;;;;;;;22.03;11.81;;;;;;;;;;359348;149;864764;-59
2021/07/28 00:46:24;;;;;;;22.28;12.12;;;;;;;;;;355779;147;857420;-61
2021/07/28 00:47:46;;;;;;;36.83;12.53;;;;;;;;;;356423;148;859513;-59
2021/07/28 00:49:06;;;;;;;24.19;12.11;;;;;;;;;;358056;146;865574;-59
2021/07/28 00:50:26;;;;;;;17.13;11.92;;;;;;;;;;356711;148;859928;-59
2021/07/28 00:51:46;;;;;;;19.39;11.88;;;;;;;;;;356342;149;857261;-59
2021/07/28 00:53:07;;;;;;;26.22;12.83;;;;;;;;;;356396;150;865951;-59
2021/07/28 00:54:27;;;;;;;19.91;11.77;;;;;;;;;;357530;148;864856;-59
2021/07/28 00:55:47;;;;;;;18.07;12.12;;;;;;;;;;355691;151;857727;-59
2021/07/28 00:57:07;;;;;;;;;;;;;;;;;;360073;149;856521;-59
2021/07/28 00:58:28;;;;;;;17.52;11.44;;;;;;;;;;359196;148;857607;-59
2021/07/28 00:59:49;;;;;;;21.99;12.82;;;;;;;;;;354477;152;859412;-59
2021/07/28 01:01:09;;;;;;;18.64;11.62;;;;;;;;;;355905;148;858744;-59
2021/07/28 01:02:29;;;;;;;17.19;11.93;;;;;;;;;;358374;148;857404;-59
2021/07/28 01:03:49;;;;;;;17.99;11.75;;;;;;;;;;357606;149;864953;-59
2021/07/28 01:05:09;;;;;;;21.77;12.48;;;;;;;;;;357492;147;865109;-59
2021/07/28 01:06:29;;;;;;;;;;;;;;;;;;358249;151;856707;-59
2021/07/28 01:07:49;;;;;;;17.33;11.20;;;;;;;;;;357850;146;859282;-59
2021/07/28 01:09:09;;;;;;;19.12;11.77;;;;;;;;;;356441;146;857325;-59
2021/07/28 01:10:29;;;;;;;22.79;11.96;;;;;;;;;;354931;149;857949;-59
2021/07/28 01:11:49;;;;;;;18.64;11.67;;;;;;;;;;356664;148;866139;-59
2021/07/28 01:13:09;;;;;;;21.62;11.84;;;;;;;;;;356527;149;857363;-59
2021/07/28 01:14:29;;;;;;;15.58;9.73;;;;;;;;;;356087;149;859929;-59
2021/07/28 01:15:54;;;;;;;19.98;11.67;;;;;;;;;;358790;147;858323;-59
2021/07/28 01:17:11;;;;;;;18.85;11.91;;;;;;;;;;354610;152;857343;-59
2021/07/28 01:18:31;;;;;;;16.03;11.31;;;;;;;;;;355962;148;857442;-59
2021/07/28 01:19:53;;;;;;;15.34;11.33;;;;;;;;;;359427;149;866712;-59
2021/07/28 01:21:13;;;;;;;18.63;11.34;;;;;;;;;;348395;150;866739;-59
2021/07/28 01:22:33;;;;;;;19.38;12.27;;;;;;;;;;352455;148;857558;-59
2021/07/28 01:23:53;;;;;;;;;;;;;;;;;;360205;149;865094;-59
2021/07/28 01:25:13;;;;;;;14.41;11.16;;;;;;;;;;357994;146;857379;-59
2021/07/28 01:26:33;;;;;;;20.99;10.76;;;;;;;;;;359641;149;857346;-60
2021/07/28 01:27:53;;;;;;;19.23;11.34;;;;;;;;;;360823;149;864676;-60
2021/07/28 01:29:13;;;;;;;15.42;11.51;;;;;;;;;;355625;148;859119;-59
2021/07/28 01:30:33;;;;;;;16.66;10.69;;;;;;;;;;353961;149;857468;-58
2021/07/28 01:31:54;;;;;;;17.44;11.68;;;;;;;;;;357800;149;866809;-60
2021/07/28 01:33:13;;;;;;;;;;;;;;;;;;360919;148;856570;-59
2021/07/28 01:34:34;;;;;;;16.44;11.44;;;;;;;;;;356918;150;859021;-60
2021/07/28 01:35:54;;;;;;;18.42;11.69;;;;;;;;;;354909;147;857423;-60
2021/07/28 01:37:14;;;;;;;18.41;11.04;;;;;;;;;;356229;149;857320;-60
2021/07/28 01:38:35;;;;;;;16.63;12.02;;;;;;;;;;358513;148;864910;-59
2021/07/28 01:39:55;;;;;;;20.81;11.96;;;;;;;;;;357737;148;857265;-60
2021/07/28 01:41:15;;;;;;;16.33;11.44;;;;;;;;;;359363;149;857317;-60
2021/07/28 01:42:39;;;;;;;20.40;11.67;;;;;;;;;;358484;146;864951;-59
2021/07/28 01:43:59;;;;;;;17.57;11.48;;;;;;;;;;357673;149;857427;-60
2021/07/28 01:45:19;;;;;;;14.61;10.62;;;;;;;;;;346941;155;857370;-59
2021/07/28 01:46:39;;;;;;;18.83;11.77;;;;;;;;;;346204;153;864917;-60
2021/07/28 01:47:59;;;;;;;16.44;11.23;;;;;;;;;;347291;155;864992;-60
2021/07/28 01:49:19;;;;;;;24.38;12.43;;;;;;;;;;347165;152;865032;-60
2021/07/28 01:50:39;;;;;;;15.73;10.70;;;;;;;;;;345125;152;864826;-60
2021/07/28 01:51:59;;;;;;;16.43;10.77;;;;;;;;;;341298;155;865083;-60
2021/07/28 01:53:19;;;;;;;23.82;11.43;;;;;;;;;;348983;149;865887;-60
2021/07/28 01:54:39;;;;;;;15.70;11.24;;;;;;;;;;353628;151;865540;-60
2021/07/28 01:56:00;;;;;;;19.01;11.75;;;;;;;;;;355854;149;868747;-60
2021/07/28 01:57:20;;;;;;;15.38;11.58;;;;;;;;;;349397;150;858694;-60
2021/07/28 01:58:42;;;;;;;17.18;11.36;;;;;;;;;;340855;158;857858;-60
2021/07/28 02:00:02;;;;;;;20.54;11.87;;;;;;;;;;350044;150;868564;-60
2021/07/28 02:01:23;;;;;;;16.44;11.31;;;;;;;;;;348130;151;857515;-60
2021/07/28 02:02:43;;;;;;;16.58;10.83;;;;;;;;;;349368;153;859373;-59
2021/07/28 02:04:03;;;;;;;18.60;11.35;;;;;;;;;;346744;152;857260;-60
2021/07/28 02:05:22;;;;;;;17.27;10.97;;;;;;;;;;348320;153;864907;-59
2021/07/28 02:06:42;;;;;;;20.04;11.54;;;;;;;;;;350361;150;864763;-59
2021/07/28 02:08:04;;;;;;;22.01;12.22;;;;;;;;;;349127;151;864768;-59
2021/07/28 02:09:24;;;;;;;25.69;12.77;;;;;;;;;;345991;153;864868;-60
2021/07/28 02:10:49;;;;;;;17.40;11.59;;;;;;;;;;347869;151;857327;-59
2021/07/28 02:12:07;;;;;;;19.15;11.85;;;;;;;;;;349140;150;865064;-58
2021/07/28 02:13:27;;;;;;;19.16;11.83;;;;;;;;;;346043;149;860204;-59
2021/07/28 02:14:46;;;;;;;27.04;12.02;;;;;;;;;;348786;149;857556;-59
2021/07/28 02:16:07;;;;;;;21.34;12.26;;;;;;;;;;355724;148;857358;-59
2021/07/28 02:17:27;;;;;;;20.85;11.56;;;;;;;;;;359314;148;864849;-59
2021/07/28 02:18:47;;;;;;;16.84;11.73;;;;;;;;;;358640;147;857733;-59
2021/07/28 02:20:08;;;;;;;19.61;11.47;;;;;;;;;;357052;146;856735;-59
2021/07/28 02:21:28;;;;;;;21.22;12.05;;;;;;;;;;359547;146;865033;-60
2021/07/28 02:22:48;;;;;;;15.27;11.54;;;;;;;;;;357336;146;859495;-59
2021/07/28 02:24:08;;;;;;;;;;;;;;;;;;360611;147;859236;-61
2021/07/28 02:25:28;;;;;;;21.12;12.50;;;;;;;;;;358680;147;857584;-61
2021/07/28 02:26:48;;;;;;;22.36;12.88;;;;;;;;;;358870;148;859901;-60
2021/07/28 02:28:09;;;;;;;25.29;12.25;;;;;;;;;;359243;147;859251;-60
2021/07/28 02:29:29;;;;;;;27.76;12.67;;;;;;;;;;357905;148;864957;-60
2021/07/28 02:30:49;;;;;;;26.81;12.57;;;;;;;;;;359023;148;859692;-60
2021/07/28 02:32:08;;;;;;;21.09;11.99;;;;;;;;;;358064;147;859255;-60
2021/07/28 02:33:28;;;;;;;21.42;12.16;;;;;;;;;;355148;148;857904;-59
2021/07/28 02:34:48;;;;;;;17.27;11.38;;;;;;;;;;359164;147;857353;-60
2021/07/28 02:36:08;;;;;;;19.61;11.54;;;;;;;;;;359541;146;864981;-60
2021/07/28 02:37:28;;;;;;;22.54;12.37;;;;;;;;;;363957;146;857544;-60
2021/07/28 02:38:48;;;;;;;17.16;11.78;;;;;;;;;;356413;147;864932;-60
2021/07/28 02:40:10;;;;;;;17.94;12.41;;;;;;;;;;355570;146;859495;-60
2021/07/28 02:41:30;;;;;;;21.41;11.33;;;;;;;;;;356011;148;864583;-60
2021/07/28 02:42:50;;;;;;;17.94;11.80;;;;;;;;;;358833;147;857231;-59
2021/07/28 02:44:09;;;;;;;24.30;11.34;;;;;;;;;;361318;148;863838;-60
2021/07/28 02:45:30;;;;;;;18.99;11.11;;;;;;;;;;358711;148;858413;-59
2021/07/28 02:46:50;;;;;;;17.83;11.22;;;;;;;;;;358580;147;859168;-59
2021/07/28 02:48:10;;;;;;;17.32;11.22;;;;;;;;;;357816;148;857350;-59
2021/07/28 02:49:30;;;;;;;17.67;11.86;;;;;;;;;;356400;147;858115;-59
2021/07/28 02:50:50;;;;;;;17.72;11.34;;;;;;;;;;358272;148;865076;-59
2021/07/28 02:52:09;;;;;;;18.53;11.88;;;;;;;;;;357796;147;857509;-59
2021/07/28 02:53:29;;;;;;;17.34;11.27;;;;;;;;;;356438;147;858795;-59
2021/07/28 02:54:49;;;;;;;19.56;11.34;;;;;;;;;;355341;148;865657;-59
2021/07/28 02:56:09;;;;;;;17.58;10.82;;;;;;;;;;357953;147;858036;-59
2021/07/28 02:57:30;;;;;;;;;;;;;;;;;;361589;148;857416;-59
2021/07/28 02:58:49;;;;;;;16.79;9.99;;;;;;;;;;361015;148;857719;-62
2021/07/28 03:00:10;;;;;;;15.92;11.11;;;;;;;;;;356735;147;859842;-59
2021/07/28 03:01:29;;;;;;;;;;;;;;;;;;361058;148;859897;-60
2021/07/28 03:02:49;;;;;;;16.67;11.04;;;;;;;;;;357938;148;857486;-60
2021/07/28 03:04:09;;;;;;;19.44;9.56;;;;;;;;;;356299;147;857467;-61
2021/07/28 03:05:29;;;;;;;14.53;10.07;;;;;;;;;;358479;148;864924;-59
2021/07/28 03:06:49;;;;;;;19.47;9.80;;;;;;;;;;357138;148;857376;-61
2021/07/28 03:08:09;;;;;;;17.41;10.38;;;;;;;;;;359017;148;860121;-59
2021/07/28 03:09:28;;;;;;;16.04;11.24;;;;;;;;;;360778;148;857469;-59
2021/07/28 03:10:49;;;;;;;20.73;10.84;;;;;;;;;;358256;147;857325;-60
2021/07/28 03:12:08;;;;;;;17.72;11.07;;;;;;;;;;358427;148;864640;-59
2021/07/28 03:13:28;;;;;;;20.39;10.71;;;;;;;;;;356128;147;865202;-59
2021/07/28 03:14:48;;;;;;;19.12;11.01;;;;;;;;;;358743;147;864842;-59
2021/07/28 03:16:08;;;;;;;21.02;10.96;;;;;;;;;;356653;148;857296;-58
2021/07/28 03:17:29;;;;;;;18.95;11.72;;;;;;;;;;358910;146;857436;-60
2021/07/28 03:18:49;;;;;;;18.58;11.72;;;;;;;;;;358005;148;857345;-59
2021/07/28 03:20:09;;;;;;;;;;;;;;;;;;358967;148;857073;-57
2021/07/28 03:21:29;;;;;;;16.11;10.28;;;;;;;;;;357206;147;857473;-59
2021/07/28 03:22:49;;;;;;;15.73;11.03;;;;;;;;;;355875;148;860070;-60
2021/07/28 03:24:09;;;;;;;16.41;11.21;;;;;;;;;;357220;148;865704;-58
2021/07/28 03:25:29;;;;;;;;;;;;;;;;;;362318;147;864358;-59
2021/07/28 03:26:49;;;;;;;19.26;11.22;;;;;;;;;;357468;148;857345;-60
2021/07/28 03:28:09;;;;;;;22.41;11.92;;;;;;;;;;357768;146;857305;-60
2021/07/28 03:29:29;;;;;;;;;;;;;;;;;;361228;148;857545;-60
2021/07/28 03:30:49;;;;;;;16.77;11.12;;;;;;;;;;358732;148;858554;-62
2021/07/28 03:32:09;;;;;;;19.11;12.13;;;;;;;;;;359832;147;859064;-63
2021/07/28 03:33:29;;;;;;;19.69;12.20;;;;;;;;;;361704;148;865269;-67
2021/07/28 03:34:49;;;;;;;21.76;12.54;;;;;;;;;;355235;148;857357;-63
2021/07/28 03:36:09;;;;;;;18.57;11.31;;;;;;;;;;356034;148;864808;-62
2021/07/28 03:37:29;;;;;;;20.09;11.46;;;;;;;;;;355261;148;866937;-65
2021/07/28 03:38:48;;;;;;;18.57;12.11;;;;;;;;;;358183;147;864957;-66
2021/07/28 03:40:09;;;;;;;19.74;11.84;;;;;;;;;;356409;148;864704;-65
2021/07/28 03:41:29;;;;;;;17.34;11.89;;;;;;;;;;357674;147;864868;-65
2021/07/28 03:42:49;;;;;;;17.94;11.97;;;;;;;;;;357893;147;857228;-66
2021/07/28 03:44:09;;;;;;;20.19;12.07;;;;;;;;;;355456;148;864536;-66
2021/07/28 03:45:29;;;;;;;18.57;11.27;;;;;;;;;;356792;148;864961;-66
2021/07/28 03:46:48;;;;;;;23.38;12.01;;;;;;;;;;360023;148;864790;-64
2021/07/28 03:48:08;;;;;;;18.98;12.28;;;;;;;;;;356262;147;857206;-64
2021/07/28 03:49:28;;;;;;;23.11;11.89;;;;;;;;;;356132;148;859228;-66
2021/07/28 03:50:48;;;;;;;16.35;11.67;;;;;;;;;;359036;148;866197;-62
2021/07/28 03:52:08;;;;;;;18.68;12.51;;;;;;;;;;356265;147;864948;-62
2021/07/28 03:53:28;;;;;;;19.26;12.17;;;;;;;;;;359874;148;859851;-62
2021/07/28 03:54:48;;;;;;;20.44;12.33;;;;;;;;;;355430;148;857342;-65
2021/07/28 03:56:08;;;;;;;19.08;12.21;;;;;;;;;;355743;148;859193;-64
2021/07/28 03:57:28;;;;;;;16.05;11.90;;;;;;;;;;355162;148;865041;-65
2021/07/28 03:58:49;;;;;;;15.93;11.09;;;;;;;;;;356559;146;865035;-66
2021/07/28 04:00:09;;;;;;;18.87;12.06;;;;;;;;;;358539;147;857464;-64
2021/07/28 04:01:29;;;;;;;19.37;12.13;;;;;;;;;;359668;148;857382;-66
2021/07/28 04:02:49;;;;;;;;;;;;;;;;;;361925;146;858304;-65
2021/07/28 04:04:09;;;;;;;19.15;11.55;;;;;;;;;;359122;147;859601;-65
2021/07/28 04:05:29;;;;;;;17.29;11.18;;;;;;;;;;359785;148;859066;-64
2021/07/28 04:06:49;;;;;;;20.04;11.77;;;;;;;;;;357633;147;864961;-66
2021/07/28 04:08:09;;;;;;;17.19;11.66;;;;;;;;;;360457;148;864876;-65
2021/07/28 04:09:29;;;;;;;16.80;11.58;;;;;;;;;;357694;147;857955;-65
2021/07/28 04:10:49;;;;;;;20.09;12.54;;;;;;;;;;357755;148;859756;-67
2021/07/28 04:12:09;;;;;;;15.14;11.68;;;;;;;;;;357718;148;857360;-65
2021/07/28 04:13:28;;;;;;;16.90;12.39;;;;;;;;;;357223;147;865231;-65
2021/07/28 04:14:48;;;;;;;19.51;11.87;;;;;;;;;;358112;148;858727;-65
2021/07/28 04:16:08;;;;;;;17.01;11.66;;;;;;;;;;356531;147;857388;-64
2021/07/28 04:17:28;;;;;;;18.43;11.53;;;;;;;;;;358827;147;859347;-63
2021/07/28 04:18:48;;;;;;;19.90;11.36;;;;;;;;;;360928;148;866282;-63
2021/07/28 04:20:08;;;;;;;14.84;11.13;;;;;;;;;;357953;148;859393;-64
2021/07/28 04:21:28;;;;;;;20.98;11.36;;;;;;;;;;358683;148;866058;-65
2021/07/28 04:22:48;;;;;;;18.22;11.28;;;;;;;;;;357559;148;857304;-64
2021/07/28 04:24:08;;;;;;;15.86;11.96;;;;;;;;;;355038;148;864442;-66
2021/07/28 04:25:28;;;;;;;;;;;;;;;;;;359026;148;864498;-66
2021/07/28 04:26:48;;;;;;;15.26;11.36;;;;;;;;;;356821;147;857330;-66
2021/07/28 04:28:08;;;;;;;17.24;11.06;;;;;;;;;;358263;148;857189;-65
2021/07/28 04:29:28;;;;;;;16.29;10.79;;;;;;;;;;355415;151;865137;-65
2021/07/28 04:30:48;;;;;;;14.93;11.26;;;;;;;;;;358782;146;865039;-66
2021/07/28 04:32:08;;;;;;;15.51;10.69;;;;;;;;;;358771;147;865156;-65
2021/07/28 04:33:27;;;;;;;18.23;10.74;;;;;;;;;;358612;147;859086;-64
2021/07/28 04:34:47;;;;;;;14.82;11.24;;;;;;;;;;358707;146;865790;-65
2021/07/28 04:36:07;;;;;;;14.57;10.57;;;;;;;;;;360694;148;865036;-65
2021/07/28 04:37:27;;;;;;;17.22;10.61;;;;;;;;;;360438;148;865024;-66
2021/07/28 04:38:47;;;;;;;17.92;10.96;;;;;;;;;;359237;147;857753;-67
2021/07/28 04:40:08;;;;;;;16.88;10.85;;;;;;;;;;361710;148;866234;-66
2021/07/28 04:41:28;;;;;;;18.97;11.18;;;;;;;;;;355897;148;866802;-65
2021/07/28 04:42:48;;;;;;;17.50;11.09;;;;;;;;;;355992;147;857235;-65
2021/07/28 04:44:08;;;;;;;17.71;11.31;;;;;;;;;;358405;146;864545;-64
2021/07/28 04:45:28;;;;;;;13.94;10.76;;;;;;;;;;357252;146;865747;-65
2021/07/28 04:46:47;;;;;;;15.50;11.21;;;;;;;;;;354809;144;863801;-67
2021/07/28 04:48:07;;;;;;;15.87;10.40;;;;;;;;;;354452;150;857217;-64
2021/07/28 04:49:27;;;;;;;15.73;10.98;;;;;;;;;;352984;150;866912;-64
2021/07/28 04:50:47;;;;;;;18.57;11.16;;;;;;;;;;355010;151;866654;-65
2021/07/28 04:52:09;;;;;;;16.95;10.98;;;;;;;;;;353713;149;865932;-64
2021/07/28 04:53:29;;;;;;;21.04;11.85;;;;;;;;;;355512;151;865045;-65
2021/07/28 04:54:49;;;;;;;17.44;11.03;;;;;;;;;;351343;149;857394;-65
2021/07/28 04:56:09;;;;;;;;;;;;;;;;;;355623;149;864269;-65
2021/07/28 04:57:29;;;;;;;17.39;10.29;;;;;;;;;;351774;151;857466;-65
2021/07/28 04:58:49;;;;;;;17.75;10.77;;;;;;;;;;346787;152;859098;-65
2021/07/28 05:00:10;;;;;;;;;;;;;;;;;;351575;151;856682;-66
2021/07/28 05:01:30;;;;;;;15.89;9.23;;;;;;;;;;355667;150;859177;-65
2021/07/28 05:02:50;;;;;;;18.65;10.88;;;;;;;;;;353411;150;857359;-65
2021/07/28 05:04:11;;;;;;;16.48;10.42;;;;;;;;;;354405;151;857369;-65
2021/07/28 05:05:31;;;;;;;15.33;9.86;;;;;;;;;;354325;150;857381;-65
2021/07/28 05:06:51;;;;;;;17.17;10.66;;;;;;;;;;354514;150;857393;-65
2021/07/28 05:08:10;;;;;;;17.36;10.08;;;;;;;;;;353610;150;864997;-65
2021/07/28 05:09:31;;;;;;;;;;;;;;;;;;356755;150;860377;-65
2021/07/28 05:10:51;;;;;;;19.02;10.34;;;;;;;;;;350229;150;857432;-65
2021/07/28 05:12:11;;;;;;;18.76;10.98;;;;;;;;;;354499;149;857310;-65
2021/07/28 05:13:31;;;;;;;23.02;11.36;;;;;;;;;;352711;149;857384;-65
2021/07/28 05:14:51;;;;;;;20.54;10.64;;;;;;;;;;351296;150;864912;-65
2021/07/28 05:16:10;;;;;;;16.53;11.91;;;;;;;;;;353540;150;864986;-65
2021/07/28 05:17:30;;;;;;;15.27;10.04;;;;;;;;;;346523;153;865546;-67
2021/07/28 05:18:50;;;;;;;;;;;;;;;;;;355255;151;864461;-65
2021/07/28 05:20:11;;;;;;;17.09;10.39;;;;;;;;;;353883;150;858362;-66
2021/07/28 05:21:31;;;;;;;16.71;9.77;;;;;;;;;;354659;151;857422;-65
2021/07/28 05:22:51;;;;;;;18.87;10.49;;;;;;;;;;353824;151;857412;-65
2021/07/28 05:24:12;;;;;;;16.90;10.66;;;;;;;;;;352866;150;864984;-64
2021/07/28 05:25:32;;;;;;;22.79;10.94;;;;;;;;;;351841;151;857501;-63
2021/07/28 05:26:52;;;;;;;21.93;11.13;;;;;;;;;;353291;150;857941;-64
2021/07/28 05:28:12;;;;;;;24.62;10.93;;;;;;;;;;353750;150;865575;-65
2021/07/28 05:29:32;;;;;;;18.11;10.60;;;;;;;;;;356364;149;866555;-65
2021/07/28 05:30:52;;;;;;;17.87;10.19;;;;;;;;;;346051;151;866370;-65
2021/07/28 05:32:12;;;;;;;19.72;10.74;;;;;;;;;;350084;149;864990;-65
2021/07/28 05:33:32;;;;;;;14.88;8.56;;;;;;;;;;354455;149;857430;-64
2021/07/28 05:34:52;;;;;;;11.48;7.77;;;;;;;;;;354241;150;864933;-64
2021/07/28 05:36:12;;;;;;;14.84;8.89;;;;;;;;;;354411;151;866345;-65
2021/07/28 05:37:31;;;;;;;12.78;8.88;;;;;;;;;;352869;150;866428;-64
2021/07/28 05:38:51;;;;;;;16.69;8.53;;;;;;;;;;356436;150;865067;-65
2021/07/28 05:40:12;;;;;;;36.22;11.68;;;;;;;;;;353595;150;865500;-65
2021/07/28 05:41:31;;;;;;;;;;;;;;;;;;356816;150;865325;-65
2021/07/28 05:42:51;;;;;;;21.23;8.66;;;;;;;;;;354318;149;859162;-65
2021/07/28 05:44:12;;;;;;;13.82;8.67;;;;;;;;;;354612;149;857437;-65
2021/07/28 05:45:32;;;;;;;20.07;8.64;;;;;;;;;;355138;150;857595;-63
2021/07/28 05:46:52;;;;;;;15.74;8.48;;;;;;;;;;356046;150;866109;-66
2021/07/28 05:48:11;;;;;;;13.96;7.84;;;;;;;;;;355259;148;858901;-66
2021/07/28 05:49:31;;;;;;;33.18;8.82;;;;;;;;;;355902;148;858235;-66
2021/07/28 05:50:51;;;;;;;13.96;7.53;;;;;;;;;;354806;148;865003;-65
2021/07/28 05:52:11;;;;;;;12.04;7.40;;;;;;;;;;354115;149;865147;-64
2021/07/28 05:53:32;;;;;;;13.76;7.17;;;;;;;;;;348668;154;865061;-65
2021/07/28 05:54:52;;;;;;;19.11;6.89;;;;;;;;;;354817;149;864999;-64
2021/07/28 05:56:12;;;;;;;12.96;7.36;;;;;;;;;;351128;149;859038;-65
2021/07/28 05:57:32;;;;;;;12.31;7.16;;;;;;;;;;355816;151;868236;-65
2021/07/28 05:58:52;;;;;;;17.68;7.85;;;;;;;;;;356755;148;866418;-65
2021/07/28 06:00:12;;;;;;;15.24;7.07;;;;;;;;;;354033;148;866019;-65
2021/07/28 06:01:32;;;;;;;15.35;7.36;;;;;;;;;;355337;148;866202;-65
2021/07/28 06:02:52;;;;;;;13.94;7.45;;;;;;;;;;356645;148;857886;-64
2021/07/28 06:04:12;;;;;;;14.13;7.79;;;;;;;;;;355823;148;859338;-65
2021/07/28 06:05:32;;;;;;;11.69;7.51;;;;;;;;;;355012;148;860449;-65
2021/07/28 06:06:52;;;;;;;13.44;8.06;;;;;;;;;;352138;151;857850;-65
2021/07/28 06:08:12;;;;;;;16.42;7.89;;;;;;;;;;355709;149;866708;-65
2021/07/28 06:09:33;;;;;;;13.36;8.36;;;;;;;;;;355725;149;866118;-65
2021/07/28 06:10:34;;;;;;;15.63;8.60;;;;;;;;;;356749;149;857218;-65
2021/07/28 06:11:36;;;;;;;13.97;7.25;;;;;;;;;;355690;150;857319;-65
2021/07/28 06:12:38;;;;;;;14.65;7.70;;;;;;;;;;355353;148;859023;-65
2021/07/28 06:13:39;;;;;;;13.64;7.89;;;;;;;;;;357535;148;859057;-65
2021/07/28 06:14:41;;;;;;;14.92;7.49;;;;;;;;;;358359;148;859636;-64
2021/07/28 06:15:43;;;;;;;15.59;7.46;;;;;;;;;;356309;148;858568;-65
2021/07/28 06:16:45;;;;;;;13.61;7.57;;;;;;;;;;356752;149;866530;-64
2021/07/28 06:17:46;;;;;;;13.61;7.08;;;;;;;;;;356709;151;859069;-65
2021/07/28 06:19:06;;;;;;;;;;;;;;;;;;358593;149;856560;-64
2021/07/28 06:20:10;;;;;;;15.37;7.77;;;;;;;;;;353498;149;857406;-64
2021/07/28 06:21:11;;;;;;;16.05;7.81;;;;;;;;;;351474;148;864909;-64
2021/07/28 06:22:13;;;;;;;17.64;7.56;;;;;;;;;;352847;148;857250;-64
2021/07/28 06:23:15;;;;;;;11.39;7.49;;;;;;;;;;355250;149;857682;-64
2021/07/28 06:24:16;;;;;;;13.46;8.25;;;;;;;;;;356479;151;859315;-64
2021/07/28 06:25:18;;;;;;;16.33;8.07;;;;;;;;;;356478;151;865049;-64
2021/07/28 06:26:20;;;;;;;11.74;7.92;;;;;;;;;;354672;148;857922;-65
2021/07/28 06:27:21;;;;;;;13.84;6.50;;;;;;;;;;352901;149;866755;-65
2021/07/28 06:28:23;;;;;;;15.23;8.28;;;;;;;;;;352992;148;865012;-65
2021/07/28 06:29:29;;;;;;;15.50;6.81;;;;;;;;;;355454;151;866981;-65
2021/07/28 06:30:29;;;;;;;12.67;7.45;;;;;;;;;;354523;149;866944;-65
2021/07/28 06:31:31;;;;;;;12.73;7.24;;;;;;;;;;355251;151;857309;-65
2021/07/28 06:32:32;;;;;;;9.82;6.81;;;;;;;;;;356531;150;865130;-65
2021/07/28 06:33:34;;;;;;;11.92;7.22;;;;;;;;;;355273;148;859745;-64
2021/07/28 06:34:36;;;;;;;11.65;7.54;;;;;;;;;;356804;150;866808;-64
2021/07/28 06:35:37;;;;;;;10.57;7.61;;;;;;;;;;355817;150;859191;-64
2021/07/28 06:36:39;;;;;;;16.29;8.11;;;;;;;;;;356158;150;865786;-64
2021/07/28 06:37:41;;;;;;;11.39;7.89;;;;;;;;;;356418;148;857393;-64
2021/07/28 06:38:43;;;;;;;10.33;7.14;;;;;;;;;;357002;148;857246;-64
2021/07/28 06:39:45;;;;;;;15.82;8.25;;;;;;;;;;357745;148;859424;-64
2021/07/28 06:40:48;;;;;;;17.29;8.39;;;;;;;;;;355888;148;856695;-64
2021/07/28 06:41:49;;;;;;;17.55;6.67;;;;;;;;;;349781;152;858613;-64
2021/07/28 06:42:51;;;;;;;14.11;6.74;;;;;;;;;;348679;152;860306;-65
2021/07/28 06:43:52;;;;;;;11.40;7.04;;;;;;;;;;356240;148;857303;-65
2021/07/28 06:44:54;;;;;;;12.16;6.80;;;;;;;;;;356142;148;859441;-64
2021/07/28 06:45:59;;;;;;;9.99;6.66;;;;;;;;;;356833;150;857416;-65
2021/07/28 06:47:00;;;;;;;11.70;7.08;;;;;;;;;;354855;148;857349;-64
2021/07/28 06:48:02;;;;;;;16.61;7.72;;;;;;;;;;354116;148;857879;-64
2021/07/28 06:49:04;;;;;;;39.21;10.49;;;;;;;;;;355383;148;859477;-64
2021/07/28 06:50:07;;;;;;;16.94;8.54;;;;;;;;;;352998;149;858971;-64
2021/07/28 06:51:08;;;;;;;18.27;8.36;;;;;;;;;;354398;149;857381;-64
2021/07/28 06:52:10;;;;;;;19.89;7.89;;;;;;;;;;354150;149;857355;-65
2021/07/28 06:53:12;;;;;;;14.41;8.16;;;;;;;;;;355185;148;865596;-65
2021/07/28 06:54:13;;;;;;;14.65;7.69;;;;;;;;;;351354;150;865697;-65
2021/07/28 06:55:15;;;;;;;15.20;8.71;;;;;;;;;;355451;150;865445;-65
2021/07/28 06:56:17;;;;;;;12.55;8.38;;;;;;;;;;355012;148;857360;-65
2021/07/28 06:57:19;;;;;;;21.14;8.69;;;;;;;;;;350600;151;858986;-65
2021/07/28 06:58:21;;;;;;;18.01;9.21;;;;;;;;;;353365;149;866778;-65
2021/07/28 06:59:22;;;;;;;18.59;8.51;;;;;;;;;;355319;151;859991;-65
2021/07/28 07:00:26;;;;;;;30.04;9.33;;;;;;;;;;354764;151;857393;-65
2021/07/28 07:01:27;;;;;;;13.70;7.99;;;;;;;;;;353832;150;857280;-65
2021/07/28 07:02:29;;;;;;;14.51;7.54;;;;;;;;;;354597;149;859314;-65
2021/07/28 07:03:30;;;;;;;15.40;8.86;;;;;;;;;;353281;149;859684;-64
2021/07/28 07:04:32;;;;;;;13.51;8.23;;;;;;;;;;354382;149;857275;-64
2021/07/28 07:05:34;;;;;;;11.47;8.12;;;;;;;;;;353330;150;857292;-64
2021/07/28 07:06:36;;;;;;;14.74;8.85;;;;;;;;;;353127;148;865770;-64
2021/07/28 07:07:37;;;;;;;14.59;8.59;;;;;;;;;;351499;151;857364;-64
2021/07/28 07:08:39;;;;;;;17.49;8.64;;;;;;;;;;353032;149;857476;-64
2021/07/28 07:09:41;;;;;;;15.13;8.66;;;;;;;;;;355058;151;865807;-64
2021/07/28 07:10:43;;;;;;;16.37;8.29;;;;;;;;;;355064;151;858953;-64
2021/07/28 07:11:45;;;;;;;14.79;9.18;;;;;;;;;;352454;150;859528;-64
2021/07/28 07:12:47;;;;;;;21.22;9.54;;;;;;;;;;355178;150;865121;-64
2021/07/28 07:13:50;;;;;;;15.54;8.41;;;;;;;;;;355572;151;859583;-64
2021/07/28 07:14:51;;;;;;;13.31;8.68;;;;;;;;;;354936;149;857806;-64
2021/07/28 07:15:53;;;;;;;11.89;9.02;;;;;;;;;;353812;150;857296;-64
2021/07/28 07:16:55;;;;;;;15.30;8.73;;;;;;;;;;354387;148;865146;-64
2021/07/28 07:17:57;;;;;;;12.85;8.97;;;;;;;;;;348324;151;865786;-63
2021/07/28 07:18:59;;;;;;;14.08;8.81;;;;;;;;;;354645;148;857916;-64
2021/07/28 07:20:00;;;;;;;14.64;8.91;;;;;;;;;;354713;150;866148;-63
2021/07/28 07:21:02;;;;;;;13.36;9.10;;;;;;;;;;355174;151;858679;-65
2021/07/28 07:22:04;;;;;;;13.79;9.11;;;;;;;;;;354194;150;857338;-65
2021/07/28 07:23:05;;;;;;;16.44;8.55;;;;;;;;;;353762;148;864824;-65
2021/07/28 07:24:07;;;;;;;17.66;9.19;;;;;;;;;;355334;148;857483;-65
2021/07/28 07:25:09;;;;;;;16.03;9.90;;;;;;;;;;355048;151;860106;-65
2021/07/28 07:26:12;;;;;;;18.06;8.86;;;;;;;;;;355134;150;857384;-65